Time;durP1;ratioP1;P1;durP2;ratioP2;P2;SDS_P1;SDS_P2;PMS_P1;PMS_P2;Temp;Humidity;BMP_temperature;BMP_pressure;BME280_temperature;BME280_humidity;BME280_pressure;Samples;Min_cycle;Max_cycle;Signal;HPM_P1;HPM_P2
2021/01/21 01:03:09;;;;;;;4.88;3.08;;;4.90;99.80;;;;;;4993774;28;20250;-84
2021/01/21 01:05:36;;;;;;;3.67;3.35;;;4.90;99.80;;;;;;5013286;28;20232;-83
2021/01/21 01:08:04;;;;;;;6.55;3.95;;;4.90;99.80;;;;;;5021654;28;20239;-84
2021/01/21 01:10:31;;;;;;;4.60;3.70;;;5.00;99.80;;;;;;4998670;28;20270;-85
2021/01/21 01:12:59;;;;;;;4.85;3.00;;;5.00;99.80;;;;;;5011374;28;20264;-83
2021/01/21 01:15:28;;;;;;;3.38;3.08;;;5.00;99.80;;;;;;5015002;28;20243;-83
2021/01/21 01:17:55;;;;;;;4.63;3.58;;;5.00;99.80;;;;;;5040679;28;20222;-83
2021/01/21 01:20:23;;;;;;;4.07;3.25;;;5.00;99.80;;;;;;5011701;28;20236;-84
2021/01/21 01:22:50;;;;;;;3.30;3.03;;;5.10;99.80;;;;;;5010329;28;20253;-83
2021/01/21 01:25:18;;;;;;;5.35;4.18;;;5.10;99.80;;;;;;4998475;28;20353;-84
2021/01/21 01:27:45;;;;;;;5.30;3.30;;;5.10;99.80;;;;;;4993915;28;20245;-83
2021/01/21 01:30:13;;;;;;;4.85;3.28;;;5.20;99.80;;;;;;5013416;28;20235;-83
2021/01/21 01:32:40;;;;;;;4.90;3.05;;;5.30;99.80;;;;;;5001708;28;20227;-83
2021/01/21 01:35:09;;;;;;;3.78;2.70;;;5.40;99.80;;;;;;4992602;28;20250;-83
2021/01/21 01:37:39;;;;;;;4.97;2.95;;;5.40;99.80;;;;;;5019370;28;21027;-84
2021/01/21 01:40:07;;;;;;;4.05;3.20;;;5.50;99.80;;;;;;5000047;28;20655;-83
2021/01/21 01:42:34;;;;;;;4.80;3.15;;;5.50;99.80;;;;;;5001036;28;20228;-83
2021/01/21 01:45:01;;;;;;;6.72;3.40;;;5.60;99.80;;;;;;5008831;28;20235;-83
2021/01/21 01:47:29;;;;;;;3.60;3.30;;;5.60;99.80;;;;;;5024321;28;20259;-83
2021/01/21 01:49:56;;;;;;;4.75;3.08;;;5.60;99.80;;;;;;5014342;28;20232;-83
2021/01/21 01:52:26;;;;;;;11.82;3.22;;;5.50;99.80;;;;;;5009211;28;20244;-82
2021/01/21 01:54:54;;;;;;;3.30;3.00;;;5.50;99.80;;;;;;5002410;28;20311;-85
2021/01/21 01:57:23;;;;;;;5.15;3.20;;;5.50;99.80;;;;;;4989954;28;20264;-85
2021/01/21 01:59:54;;;;;;;5.55;3.20;;;5.40;99.80;;;;;;4987293;28;20288;-84
2021/01/21 02:02:21;;;;;;;4.35;3.25;;;5.40;99.80;;;;;;5017666;28;20232;-83
2021/01/21 02:04:48;;;;;;;3.95;3.55;;;5.40;99.80;;;;;;5011273;28;21426;-83
2021/01/21 02:07:16;;;;;;;4.00;3.03;;;5.40;99.80;;;;;;4993905;28;20239;-83
2021/01/21 02:09:43;;;;;;;3.50;3.20;;;5.40;99.80;;;;;;5000546;28;20232;-85
2021/01/21 02:12:27;;;;;;;3.15;2.70;;;5.50;99.80;;;;;;5011161;28;20227;-83
2021/01/21 02:15:06;;;;;;;4.70;3.00;;;5.60;99.80;;;;;;5005579;28;20274;-82
2021/01/21 02:17:39;;;;;;;4.20;3.00;;;5.60;99.80;;;;;;5017587;28;20234;-84
2021/01/21 02:20:42;;;;;;;3.35;2.97;;;5.60;99.80;;;;;;5025964;28;20250;-84
2021/01/21 02:23:32;;;;;;;3.55;3.10;;;5.70;99.80;;;;;;5017234;28;20671;-84
2021/01/21 02:26:04;;;;;;;4.50;2.90;;;5.70;99.80;;;;;;4981555;28;20260;-85
2021/01/21 02:28:52;;;;;;;3.38;2.85;;;5.60;99.80;;;;;;5010289;28;20270;-84
2021/01/21 02:31:28;;;;;;;3.60;2.67;;;5.60;99.80;;;;;;5017709;28;20237;-84
2021/01/21 02:33:57;;;;;;;3.67;3.10;;;5.50;99.80;;;;;;5017221;28;20224;-84
2021/01/21 02:36:28;;;;;;;5.65;4.05;;;5.50;99.80;;;;;;5001730;28;20239;-84
2021/01/21 02:38:56;;;;;;;3.33;2.72;;;5.60;99.80;;;;;;5002177;28;20232;-85
2021/01/21 02:41:24;;;;;;;2.42;2.22;;;5.70;99.80;;;;;;5009755;28;20310;-84
2021/01/21 02:43:51;;;;;;;4.32;2.95;;;5.80;99.80;;;;;;4991011;28;20624;-84
2021/01/21 02:46:20;;;;;;;4.80;2.78;;;5.90;99.80;;;;;;5013012;28;20228;-83
2021/01/21 02:48:50;;;;;;;4.03;2.15;;;6.00;99.80;;;;;;5017727;28;20309;-84
2021/01/21 02:51:24;;;;;;;2.65;2.15;;;6.10;99.80;;;;;;5023748;28;20228;-83
2021/01/21 02:54:02;;;;;;;2.28;2.08;;;6.20;99.80;;;;;;5008060;28;20229;-84
2021/01/21 02:56:35;;;;;;;2.58;2.15;;;6.30;99.80;;;;;;5014036;28;20227;-83
2021/01/21 02:59:04;;;;;;;3.67;2.45;;;6.40;99.80;;;;;;5004428;28;20238;-84
2021/01/21 03:01:35;;;;;;;2.97;2.58;;;6.50;99.80;;;;;;5006363;28;20221;-83
2021/01/21 03:04:04;;;;;;;2.90;2.22;;;6.60;99.80;;;;;;5026152;28;20217;-84
2021/01/21 03:06:33;;;;;;;1.98;1.83;;;6.70;99.20;;;;;;5027570;28;20208;-83
2021/01/21 03:09:01;;;;;;;2.13;1.92;;;6.90;98.80;;;;;;5023787;28;20240;-83
2021/01/21 03:11:28;;;;;;;2.63;2.10;;;7.00;98.30;;;;;;5000257;28;20287;-83
2021/01/21 03:13:55;;;;;;;2.03;1.70;;;7.00;97.90;;;;;;5007798;28;20228;-83
2021/01/21 03:16:22;;;;;;;1.67;1.45;;;7.00;97.90;;;;;;5006436;28;20256;-83
2021/01/21 03:18:51;;;;;;;3.07;1.83;;;7.10;96.30;;;;;;5022649;28;20275;-84
2021/01/21 03:21:19;;;;;;;3.30;1.65;;;7.50;94.70;;;;;;5027525;28;20475;-83
2021/01/21 03:23:47;;;;;;;2.00;1.80;;;7.90;93.40;;;;;;5016708;28;20291;-82
2021/01/21 03:26:14;;;;;;;1.45;1.30;;;8.20;92.10;;;;;;4999528;28;20337;-83
2021/01/21 03:28:41;;;;;;;1.60;1.50;;;8.50;90.60;;;;;;5003874;28;20239;-86
2021/01/21 03:31:08;;;;;;;2.95;1.65;;;8.70;89.70;;;;;;5028474;28;20776;-85
2021/01/21 03:33:37;;;;;;;1.70;1.47;;;8.80;89.20;;;;;;5046818;28;20227;-84
2021/01/21 03:36:05;;;;;;;2.83;1.98;;;8.90;88.90;;;;;;5026419;28;20468;-84
2021/01/21 03:38:32;;;;;;;2.75;1.58;;;8.90;88.60;;;;;;5021977;28;20223;-84
2021/01/21 03:41:02;;;;;;;2.80;1.77;;;8.80;88.80;;;;;;5005148;28;20233;-85
2021/01/21 03:43:29;;;;;;;1.88;1.67;;;8.80;89.00;;;;;;4982922;28;21023;-84
2021/01/21 03:45:56;;;;;;;9.53;2.13;;;8.70;88.90;;;;;;5008624;28;20231;-85
2021/01/21 03:48:23;;;;;;;2.05;1.65;;;8.70;88.50;;;;;;5008611;28;20485;-84
2021/01/21 03:50:50;;;;;;;1.50;1.40;;;8.70;88.30;;;;;;5032391;28;20813;-83
2021/01/21 03:53:17;;;;;;;1.80;1.67;;;8.70;87.70;;;;;;5040636;28;21241;-83
2021/01/21 03:55:44;;;;;;;1.70;1.50;;;8.80;87.80;;;;;;5011300;28;20243;-82
2021/01/21 03:58:12;;;;;;;2.07;1.60;;;8.80;87.30;;;;;;4989108;28;20484;-84
2021/01/21 04:00:40;;;;;;;1.50;1.40;;;8.80;87.30;;;;;;5008261;28;20482;-85
2021/01/21 04:03:07;;;;;;;2.33;1.50;;;8.80;87.30;;;;;;5019125;28;20488;-85
2021/01/21 04:05:35;;;;;;;1.93;1.80;;;8.80;88.00;;;;;;4987137;28;20465;-85
2021/01/21 04:08:02;;;;;;;1.67;1.45;;;8.80;87.50;;;;;;4989339;28;20468;-84
2021/01/21 04:10:29;;;;;;;2.53;1.70;;;9.00;87.10;;;;;;4993887;28;20231;-84
2021/01/21 04:12:56;;;;;;;1.50;1.40;;;9.10;86.70;;;;;;4999140;28;20556;-84
2021/01/21 04:15:23;;;;;;;1.40;1.30;;;9.20;87.10;;;;;;4999282;28;20736;-84
2021/01/21 04:17:50;;;;;;;1.53;1.40;;;9.30;86.50;;;;;;5008139;28;20467;-84
2021/01/21 04:20:18;;;;;;;4.07;1.80;;;9.40;86.10;;;;;;5004186;28;20553;-85
2021/01/21 04:22:45;;;;;;;1.43;1.33;;;9.40;85.90;;;;;;5006608;28;21023;-84
2021/01/21 04:25:12;;;;;;;2.80;1.50;;;9.50;85.80;;;;;;5005848;28;20856;-84
2021/01/21 04:27:39;;;;;;;10.83;2.27;;;9.70;85.80;;;;;;4987671;28;21118;-85
2021/01/21 04:30:13;;;;;;;3.30;1.50;;;9.70;85.30;;;;;;5001014;28;20477;-84
2021/01/21 04:32:41;;;;;;;1.40;1.30;;;9.80;85.80;;;;;;5008504;28;20548;-85
2021/01/21 04:35:09;;;;;;;1.67;1.40;;;9.90;85.60;;;;;;4999866;28;21286;-84
2021/01/21 04:37:37;;;;;;;2.30;1.40;;;9.90;85.90;;;;;;4996268;28;20479;-84
2021/01/21 04:40:05;;;;;;;1.83;1.57;;;10.00;85.90;;;;;;4994510;28;20901;-85
2021/01/21 04:42:33;;;;;;;1.60;1.40;;;10.00;85.50;;;;;;4998053;28;20572;-84
2021/01/21 04:45:04;;;;;;;1.87;1.50;;;10.10;85.60;;;;;;4992126;28;20472;-85
2021/01/21 04:47:32;;;;;;;6.33;1.73;;;10.10;85.80;;;;;;5002834;28;20556;-85
2021/01/21 04:50:01;;;;;;;3.60;1.80;;;10.10;87.40;;;;;;5010813;28;20485;-84
2021/01/21 04:52:34;;;;;;;1.70;1.60;;;10.10;87.60;;;;;;5008810;28;20531;-85
2021/01/21 04:55:06;;;;;;;2.23;1.60;;;9.90;89.10;;;;;;5007098;28;20484;-86
2021/01/21 04:57:41;;;;;;;2.40;1.50;;;9.80;88.50;;;;;;5009586;28;20512;-85
2021/01/21 05:00:11;;;;;;;2.57;1.70;;;9.80;88.80;;;;;;5006327;28;20572;-85
2021/01/21 05:02:41;;;;;;;7.60;1.70;;;9.80;88.60;;;;;;5010177;28;20479;-86
2021/01/21 05:05:11;;;;;;;2.90;1.60;;;9.80;88.40;;;;;;5010759;28;20844;-86
2021/01/21 05:07:39;;;;;;;5.37;1.80;;;9.90;88.40;;;;;;4989756;28;20476;-86
2021/01/21 05:10:07;;;;;;;1.53;1.43;;;10.00;87.90;;;;;;4995941;28;20478;-85
2021/01/21 05:12:37;;;;;;;2.07;1.63;;;10.10;87.40;;;;;;4991528;28;21076;-85
2021/01/21 05:15:05;;;;;;;1.40;1.30;;;10.20;87.10;;;;;;4994387;28;20503;-85
2021/01/21 05:17:32;;;;;;;4.53;1.87;;;10.20;86.90;;;;;;5003447;28;20487;-85
2021/01/21 05:20:02;;;;;;;2.10;1.70;;;10.30;87.40;;;;;;4980850;28;20480;-84
2021/01/21 05:22:30;;;;;;;1.87;1.77;;;10.30;87.00;;;;;;5001402;28;20547;-85
2021/01/21 05:24:57;;;;;;;2.97;1.57;;;10.30;87.20;;;;;;4979704;28;20494;-84
2021/01/21 05:27:24;;;;;;;3.20;3.00;;;10.30;86.80;;;;;;4994038;28;20479;-85
2021/01/21 05:29:52;;;;;;;2.30;1.40;;;10.30;86.90;;;;;;4993894;28;20468;-84
2021/01/21 05:32:19;;;;;;;1.80;1.47;;;10.40;86.60;;;;;;5019843;28;21314;-84
2021/01/21 05:34:47;;;;;;;2.70;1.77;;;10.30;87.30;;;;;;5009640;28;20504;-84
2021/01/21 05:37:15;;;;;;;3.40;1.67;;;10.30;87.30;;;;;;5010149;28;20475;-83
2021/01/21 05:39:44;;;;;;;4.27;1.77;;;10.30;87.10;;;;;;5014308;28;20482;-83
2021/01/21 05:42:12;;;;;;;1.70;1.60;;;10.20;87.80;;;;;;5004465;28;20566;-83
2021/01/21 05:44:40;;;;;;;3.30;1.37;;;10.20;87.10;;;;;;5009655;28;20475;-83
2021/01/21 05:47:09;;;;;;;3.97;2.00;;;10.20;87.50;;;;;;5034513;28;20479;-83
2021/01/21 05:49:37;;;;;;;2.20;2.00;;;10.20;87.30;;;;;;5016801;28;20484;-83
2021/01/21 05:52:05;;;;;;;2.10;1.90;;;10.20;87.90;;;;;;4986645;28;20952;-85
2021/01/21 05:54:32;;;;;;;2.30;1.60;;;10.10;87.70;;;;;;5001593;28;20479;-85
2021/01/21 05:57:02;;;;;;;3.20;1.50;;;10.10;86.70;;;;;;5017208;28;20915;-85
2021/01/21 05:59:29;;;;;;;3.93;1.90;;;10.10;87.30;;;;;;5015814;28;20627;-85
2021/01/21 06:01:57;;;;;;;2.40;1.90;;;10.00;87.50;;;;;;5017909;28;20504;-84
2021/01/21 06:04:27;;;;;;;5.50;1.90;;;9.90;87.50;;;;;;5020587;28;20480;-84
2021/01/21 06:06:54;;;;;;;3.23;1.90;;;9.90;88.10;;;;;;5022190;28;20872;-84
2021/01/21 06:09:28;;;;;;;5.27;2.10;;;9.80;88.00;;;;;;5013095;28;21050;-83
2021/01/21 06:11:58;;;;;;;3.37;2.10;;;9.90;87.70;;;;;;4996139;28;20507;-84
2021/01/21 06:14:27;;;;;;;5.63;1.80;;;9.80;88.70;;;;;;4993863;28;20499;-84
2021/01/21 06:16:55;;;;;;;1.97;1.57;;;9.90;87.90;;;;;;5017784;28;20490;-84
2021/01/21 06:19:23;;;;;;;3.00;2.20;;;10.00;88.30;;;;;;5023871;28;20484;-83
2021/01/21 06:21:55;;;;;;;3.00;2.20;;;9.90;88.20;;;;;;5019910;28;20985;-84
2021/01/21 06:24:28;;;;;;;2.40;1.67;;;9.90;88.20;;;;;;5000448;28;20532;-83
2021/01/21 06:26:58;;;;;;;2.60;1.90;;;10.00;88.90;;;;;;5004554;28;21022;-83
2021/01/21 06:29:28;;;;;;;2.00;1.87;;;10.00;88.70;;;;;;5001128;28;20496;-84
2021/01/21 06:32:02;;;;;;;2.17;1.90;;;10.00;89.00;;;;;;5025788;28;20466;-81
2021/01/21 06:34:33;;;;;;;1.77;1.50;;;9.90;89.70;;;;;;5031195;28;20468;-82
2021/01/21 06:37:03;;;;;;;1.90;1.75;;;9.90;89.20;;;;;;5029943;28;20982;-82
2021/01/21 06:39:42;;;;;;;3.83;2.40;;;9.90;89.40;;;;;;5030132;28;20772;-83
2021/01/21 06:42:28;;;;;;;2.03;1.92;;;9.90;89.40;;;;;;5015260;28;20484;-84
2021/01/21 06:44:57;;;;;;;1.87;1.60;;;9.90;89.40;;;;;;5007513;28;20253;-87
2021/01/21 06:47:25;;;;;;;2.90;1.73;;;9.90;89.20;;;;;;5021799;28;20924;-85
2021/01/21 06:49:56;;;;;;;8.38;1.88;;;9.90;89.50;;;;;;5025647;28;20487;-84
2021/01/21 06:52:24;;;;;;;2.00;1.80;;;10.00;89.50;;;;;;5022454;28;20294;-83
2021/01/21 06:54:52;;;;;;;2.40;1.97;;;10.00;89.70;;;;;;5008599;28;20465;-83
2021/01/21 06:57:45;;;;;;;2.43;1.90;;;10.00;90.00;;;;;;5013939;28;20539;-82
2021/01/21 07:00:17;;;;;;;2.60;1.90;;;10.00;90.00;;;;;;4995681;28;20551;-83
2021/01/21 07:02:51;;;;;;;3.80;1.77;;;9.90;90.20;;;;;;4981701;28;20500;-83
2021/01/21 07:05:20;;;;;;;2.05;1.80;;;9.90;90.70;;;;;;4991733;28;20559;-83
2021/01/21 07:08:07;;;;;;;2.57;1.70;;;9.80;90.70;;;;;;5002820;28;20279;-82
2021/01/21 07:10:37;;;;;;;5.00;2.20;;;9.80;90.90;;;;;;4988706;28;20482;-83
2021/01/21 07:13:06;;;;;;;2.13;1.97;;;9.80;91.60;;;;;;4996108;28;20243;-83
2021/01/21 07:15:36;;;;;;;2.20;2.10;;;9.80;91.80;;;;;;5017423;28;20551;-83
2021/01/21 07:18:05;;;;;;;2.90;1.70;;;9.80;91.90;;;;;;5020283;28;20483;-83
2021/01/21 07:20:33;;;;;;;2.27;1.70;;;9.80;92.30;;;;;;5023678;28;20497;-83
2021/01/21 07:23:05;;;;;;;4.27;1.97;;;9.70;92.60;;;;;;5000419;28;20469;-82
2021/01/21 07:25:33;;;;;;;2.00;1.90;;;9.70;92.80;;;;;;4995050;28;20483;-83
2021/01/21 07:28:08;;;;;;;1.70;1.60;;;9.70;93.20;;;;;;5000600;28;20479;-85
2021/01/21 07:31:01;;;;;;;2.70;2.27;;;9.70;93.10;;;;;;5014213;28;20525;-84
2021/01/21 07:33:29;;;;;;;6.37;1.70;;;9.60;93.60;;;;;;5020583;28;20483;-84
2021/01/21 07:35:56;;;;;;;1.90;1.60;;;9.70;94.10;;;;;;5011536;28;20840;-85
2021/01/21 07:38:48;;;;;;;5.10;1.93;;;9.70;94.20;;;;;;5000451;28;21132;-84
2021/01/21 07:41:52;;;;;;;2.23;1.80;;;9.80;93.70;;;;;;5002039;28;20957;-85
2021/01/21 07:44:20;;;;;;;1.53;1.43;;;9.90;93.80;;;;;;5008681;28;20498;-85
2021/01/21 07:46:48;;;;;;;2.20;1.97;;;10.00;94.10;;;;;;5011399;28;20940;-84
2021/01/21 07:49:22;;;;;;;4.90;2.70;;;9.90;94.00;;;;;;5013515;28;20500;-86
2021/01/21 07:52:03;;;;;;;3.47;2.13;;;9.90;94.30;;;;;;5017063;28;20500;-84
2021/01/21 07:54:31;;;;;;;4.30;1.73;;;9.90;94.10;;;;;;5002286;28;20467;-84
2021/01/21 07:56:59;;;;;;;2.17;1.70;;;9.90;93.90;;;;;;5014323;28;20484;-84
2021/01/21 07:59:26;;;;;;;2.27;1.90;;;10.00;93.30;;;;;;5004927;28;20814;-84
2021/01/21 08:01:59;;;;;;;2.17;1.93;;;10.10;93.50;;;;;;5024608;28;20495;-84
2021/01/21 08:04:28;;;;;;;2.50;1.60;;;10.00;94.00;;;;;;5008617;28;20476;-85
2021/01/21 08:06:56;;;;;;;4.23;1.63;;;10.00;94.10;;;;;;4992931;28;20471;-84
2021/01/21 08:09:23;;;;;;;2.03;1.70;;;10.00;94.20;;;;;;4996309;28;20484;-85
2021/01/21 08:11:51;;;;;;;2.63;2.07;;;10.10;94.40;;;;;;5002437;28;20502;-84
2021/01/21 08:14:18;;;;;;;1.40;1.30;;;10.20;94.30;;;;;;5008398;28;20479;-85
2021/01/21 08:16:48;;;;;;;2.33;2.00;;;10.20;96.30;;;;;;5034822;28;21208;-85
2021/01/21 08:19:20;;;;;;;1.53;1.43;;;10.20;96.30;;;;;;5025474;28;20496;-85
2021/01/21 08:21:47;;;;;;;2.37;1.83;;;10.10;97.20;;;;;;5019692;28;20522;-85
2021/01/21 08:24:14;;;;;;;1.50;1.40;;;10.00;99.80;;;;;;5024716;28;20487;-85
2021/01/21 08:26:42;;;;;;;1.60;1.50;;;9.90;99.80;;;;;;5009848;28;25780;-85
2021/01/21 08:29:12;;;;;;;1.67;1.33;;;9.70;99.80;;;;;;4992446;28;20633;-85
2021/01/21 08:31:42;;;;;;;1.87;1.77;;;9.50;99.80;;;;;;5023771;28;20508;-85
2021/01/21 08:34:15;;;;;;;1.90;1.80;;;9.30;99.80;;;;;;5024932;28;20971;-85
2021/01/21 08:36:44;;;;;;;4.50;1.60;;;9.20;99.80;;;;;;4999480;28;20491;-85
2021/01/21 08:39:12;;;;;;;2.80;1.60;;;9.30;99.80;;;;;;4998738;28;20479;-86
2021/01/21 08:41:40;;;;;;;2.47;1.80;;;9.30;99.80;;;;;;4998967;28;20479;-86
2021/01/21 08:44:07;;;;;;;1.80;1.70;;;9.10;99.80;;;;;;5002285;28;20902;-86
2021/01/21 08:46:34;;;;;;;2.60;1.53;;;8.90;99.80;;;;;;5016340;28;20587;-84
2021/01/21 08:49:08;;;;;;;2.10;1.87;;;9.00;99.80;;;;;;5004670;28;20537;-84
2021/01/21 08:51:37;;;;;;;1.40;1.30;;;9.20;99.80;;;;;;4993648;28;20472;-83
2021/01/21 08:54:16;;;;;;;2.50;1.30;;;9.30;99.80;;;;;;5004849;28;20460;-85
2021/01/21 08:57:00;;;;;;;1.40;1.30;;;9.40;99.80;;;;;;5012598;28;20548;-84
2021/01/21 08:59:29;;;;;;;1.40;1.30;;;9.50;99.80;;;;;;5010800;28;21021;-84
2021/01/21 09:01:56;;;;;;;1.30;1.20;;;9.60;99.80;;;;;;5008857;28;20472;-84
2021/01/21 09:04:28;;;;;;;2.43;1.80;;;9.80;99.80;;;;;;5030120;28;21022;-85
2021/01/21 09:06:56;;;;;;;1.40;1.23;;;9.70;99.80;;;;;;5021324;28;20899;-83
2021/01/21 09:09:28;;;;;;;1.37;1.27;;;9.60;99.80;;;;;;5027820;28;20547;-83
2021/01/21 09:11:55;;;;;;;1.47;1.37;;;9.60;99.80;;;;;;5029053;28;20483;-82
2021/01/21 09:14:25;;;;;;;3.80;1.97;;;9.70;99.80;;;;;;5002489;28;20492;-82
2021/01/21 09:16:59;;;;;;;1.40;1.30;;;9.60;99.80;;;;;;5027977;28;20553;-82
2021/01/21 09:19:39;;;;;;;3.93;1.40;;;9.60;99.80;;;;;;5006129;28;20468;-82
2021/01/21 09:22:08;;;;;;;1.93;1.33;;;9.60;99.80;;;;;;4999495;28;20467;-83
2021/01/21 09:24:55;;;;;;;2.50;1.23;;;9.70;99.80;;;;;;5007038;28;20500;-83
2021/01/21 09:27:22;;;;;;;1.93;1.43;;;9.80;99.80;;;;;;5010727;28;20566;-85
2021/01/21 09:29:51;;;;;;;1.37;1.20;;;9.90;99.80;;;;;;5009365;28;20474;-85
2021/01/21 09:32:20;;;;;;;1.70;1.43;;;10.00;99.80;;;;;;5019284;28;20499;-85
2021/01/21 09:34:55;;;;;;;2.63;1.40;;;10.10;99.80;;;;;;5018210;28;20480;-84
2021/01/21 09:37:23;;;;;;;2.33;1.30;;;10.20;99.80;;;;;;5017830;28;20518;-85
2021/01/21 09:39:51;;;;;;;1.87;1.37;;;10.20;99.80;;;;;;5021220;28;20924;-84
2021/01/21 09:42:19;;;;;;;3.80;1.83;;;10.30;99.80;;;;;;4993886;28;20479;-84
2021/01/21 09:44:46;;;;;;;1.60;1.40;;;10.40;99.80;;;;;;5013179;28;20480;-84
2021/01/21 09:47:13;;;;;;;1.50;1.40;;;10.30;99.80;;;;;;5043696;28;20547;-85
2021/01/21 09:49:42;;;;;;;1.40;1.30;;;10.20;99.80;;;;;;5028113;28;20496;-85
2021/01/21 09:52:10;;;;;;;1.90;1.60;;;10.10;99.80;;;;;;5022865;28;20487;-85
2021/01/21 09:54:37;;;;;;;1.50;1.40;;;10.10;99.80;;;;;;5012846;28;20529;-84
2021/01/21 09:57:06;;;;;;;3.00;1.57;;;10.10;99.80;;;;;;5008789;28;20483;-84
2021/01/21 09:59:33;;;;;;;1.30;1.20;;;10.00;99.80;;;;;;4998799;28;20534;-85
2021/01/21 10:02:00;;;;;;;2.17;1.60;;;9.90;99.80;;;;;;5043645;28;20562;-84
2021/01/21 10:04:28;;;;;;;1.83;1.73;;;9.90;99.80;;;;;;5029138;28;21101;-85
2021/01/21 10:06:55;;;;;;;2.63;1.97;;;9.80;99.80;;;;;;5026407;28;20473;-84
2021/01/21 10:09:22;;;;;;;3.47;3.17;;;9.70;99.80;;;;;;5027781;28;20555;-85
2021/01/21 10:11:49;;;;;;;5.10;2.53;;;9.60;99.80;;;;;;5022711;28;20908;-85
2021/01/21 10:14:17;;;;;;;4.27;2.70;;;9.40;99.80;;;;;;5003623;28;20562;-86
2021/01/21 10:16:44;;;;;;;2.70;2.30;;;9.20;99.80;;;;;;5024403;28;20492;-86
2021/01/21 10:19:11;;;;;;;6.03;2.50;;;8.80;99.80;;;;;;5032170;28;20476;-86
2021/01/21 10:21:39;;;;;;;2.70;2.13;;;8.60;99.80;;;;;;5021968;28;20479;-86
2021/01/21 10:24:06;;;;;;;2.30;2.00;;;8.40;99.80;;;;;;5002958;28;20510;-86
2021/01/21 10:26:34;;;;;;;1.37;1.27;;;8.30;99.80;;;;;;5021049;28;20498;-85
2021/01/21 10:29:01;;;;;;;1.95;1.85;;;8.30;99.80;;;;;;5002886;28;20545;-85
2021/01/21 10:31:29;;;;;;;1.33;1.23;;;8.30;99.80;;;;;;5005966;28;20259;-85
2021/01/21 10:33:57;;;;;;;1.58;1.30;;;8.30;99.80;;;;;;5009158;28;20735;-85
2021/01/21 10:36:25;;;;;;;1.20;1.10;;;8.20;99.80;;;;;;4984015;28;20244;-83
2021/01/21 10:38:52;;;;;;;1.35;1.25;;;8.20;99.80;;;;;;4976323;28;20304;-82
2021/01/21 10:41:19;;;;;;;1.30;1.20;;;8.20;99.80;;;;;;5026205;28;20315;-82
2021/01/21 10:43:46;;;;;;;1.02;0.90;;;8.20;99.80;;;;;;5021762;28;20237;-83
2021/01/21 10:46:13;;;;;;;1.58;1.48;;;8.20;99.80;;;;;;5022407;28;20225;-83
2021/01/21 10:48:41;;;;;;;3.45;1.67;;;8.20;99.80;;;;;;5026694;28;20243;-82
2021/01/21 10:51:08;;;;;;;1.50;1.40;;;8.30;99.80;;;;;;5022790;28;20237;-82
2021/01/21 10:53:35;;;;;;;1.40;1.30;;;8.30;99.80;;;;;;5016691;28;20225;-82
2021/01/21 10:56:02;;;;;;;2.90;1.30;;;8.30;99.80;;;;;;5006432;28;20553;-82
2021/01/21 10:58:30;;;;;;;2.37;1.83;;;8.40;99.80;;;;;;5001837;28;20468;-82
2021/01/21 11:00:57;;;;;;;1.80;1.70;;;8.40;99.80;;;;;;5024991;28;20482;-82
2021/01/21 11:03:24;;;;;;;1.80;1.10;;;8.40;99.80;;;;;;5021489;28;20547;-82
2021/01/21 11:05:54;;;;;;;1.80;1.70;;;8.50;99.80;;;;;;5007723;28;20463;-83
2021/01/21 11:08:21;;;;;;;1.97;1.70;;;8.50;99.80;;;;;;5007209;28;20575;-82
2021/01/21 11:10:48;;;;;;;1.97;1.50;;;8.60;99.80;;;;;;5014029;28;20476;-82
2021/01/21 11:13:17;;;;;;;4.83;1.87;;;8.70;99.80;;;;;;5005748;28;20468;-81
2021/01/21 11:15:45;;;;;;;3.30;1.40;;;8.80;99.80;;;;;;5016379;28;20514;-83
2021/01/21 11:18:12;;;;;;;1.40;1.30;;;9.00;99.80;;;;;;5025240;28;20472;-82
2021/01/21 11:20:40;;;;;;;1.40;1.13;;;9.30;99.80;;;;;;5024434;28;20479;-82
2021/01/21 11:23:08;;;;;;;1.20;1.10;;;9.40;99.80;;;;;;5016095;28;20618;-83
2021/01/21 11:25:35;;;;;;;1.13;0.97;;;9.40;99.80;;;;;;5004716;28;20487;-81
2021/01/21 11:28:08;;;;;;;2.43;1.10;;;9.30;99.80;;;;;;5003770;28;20469;-82
2021/01/21 11:30:35;;;;;;;2.07;0.83;;;9.20;99.80;;;;;;5019335;28;20539;-82
2021/01/21 11:33:02;;;;;;;1.10;0.83;;;9.20;99.80;;;;;;5018813;28;20526;-83
2021/01/21 11:35:31;;;;;;;1.43;1.10;;;9.10;99.80;;;;;;4999487;28;20843;-83
2021/01/21 11:37:58;;;;;;;1.00;0.90;;;9.00;99.80;;;;;;5011319;28;20993;-84
2021/01/21 11:40:26;;;;;;;0.80;0.80;;;8.90;99.80;;;;;;5019626;28;20482;-84
2021/01/21 11:42:53;;;;;;;1.30;1.20;;;8.80;99.80;;;;;;5010751;28;21019;-84
2021/01/21 11:45:20;;;;;;;1.40;1.00;;;8.80;99.80;;;;;;5015721;28;20551;-86
2021/01/21 11:47:48;;;;;;;1.17;0.90;;;8.80;99.80;;;;;;5034821;28;20473;-84
2021/01/21 11:50:17;;;;;;;1.30;0.83;;;8.70;99.80;;;;;;5030743;28;21012;-83
2021/01/21 11:52:45;;;;;;;2.60;0.93;;;8.70;99.80;;;;;;5032684;28;20460;-84
2021/01/21 11:55:14;;;;;;;0.97;0.87;;;8.70;99.80;;;;;;5020789;28;20559;-83
2021/01/21 11:57:42;;;;;;;1.07;0.80;;;8.70;99.80;;;;;;4993677;28;20488;-84
2021/01/21 12:00:11;;;;;;;0.87;0.70;;;8.70;99.80;;;;;;5001550;28;22655;-85
2021/01/21 12:02:39;;;;;;;1.10;1.00;;;8.80;99.80;;;;;;5033122;28;20502;-85
2021/01/21 12:05:08;;;;;;;2.27;0.80;;;8.80;99.80;;;;;;5011352;28;21004;-84
2021/01/21 12:07:35;;;;;;;1.00;0.90;;;8.80;99.80;;;;;;5011754;28;20582;-85
2021/01/21 12:10:03;;;;;;;1.53;0.90;;;8.90;99.80;;;;;;4998616;28;20525;-82
2021/01/21 12:12:31;;;;;;;1.10;1.00;;;8.90;99.80;;;;;;5026000;28;20517;-81
2021/01/21 12:14:59;;;;;;;2.10;1.23;;;8.90;99.80;;;;;;5002392;28;20510;-83
2021/01/21 12:17:27;;;;;;;1.80;0.90;;;9.00;99.80;;;;;;5007823;28;20509;-82
2021/01/21 12:19:54;;;;;;;1.00;0.90;;;9.00;99.80;;;;;;5006728;28;20534;-82
2021/01/21 12:22:21;;;;;;;2.37;0.80;;;9.00;99.80;;;;;;5009758;28;20569;-85
2021/01/21 12:24:48;;;;;;;2.53;0.80;;;9.00;99.80;;;;;;4997928;28;20481;-85
2021/01/21 12:27:16;;;;;;;1.30;0.80;;;9.00;99.80;;;;;;5006418;28;20570;-86
2021/01/21 12:29:43;;;;;;;0.90;0.80;;;9.00;99.80;;;;;;4994984;28;20480;-85
2021/01/21 12:32:11;;;;;;;2.00;0.60;;;8.90;99.80;;;;;;5025886;28;20522;-85
2021/01/21 12:34:38;;;;;;;1.50;0.90;;;8.90;99.80;;;;;;5019568;28;20480;-84
2021/01/21 12:37:05;;;;;;;2.33;0.70;;;8.90;99.80;;;;;;5011873;28;20900;-86
2021/01/21 12:39:32;;;;;;;1.00;0.80;;;8.90;99.80;;;;;;5002210;28;20479;-84
2021/01/21 12:41:59;;;;;;;1.07;0.70;;;8.90;99.80;;;;;;5014419;28;20574;-85
2021/01/21 12:44:26;;;;;;;1.00;0.80;;;8.80;99.80;;;;;;5004325;28;20489;-85
2021/01/21 12:46:53;;;;;;;1.00;0.90;;;8.90;99.80;;;;;;5023694;28;20567;-85
2021/01/21 12:49:21;;;;;;;2.00;0.88;;;8.90;99.80;;;;;;5008852;28;20498;-86
2021/01/21 12:51:49;;;;;;;3.60;0.93;;;9.00;99.80;;;;;;4999727;28;20620;-85
2021/01/21 12:54:16;;;;;;;1.43;1.10;;;9.00;99.80;;;;;;5019804;28;20481;-86
2021/01/21 12:56:43;;;;;;;0.90;0.70;;;9.00;99.80;;;;;;5010876;28;20551;-85
2021/01/21 12:59:10;;;;;;;1.00;0.80;;;9.10;99.80;;;;;;5002069;28;20482;-85
2021/01/21 13:01:37;;;;;;;1.50;0.90;;;9.10;99.80;;;;;;5034360;28;20484;-85
2021/01/21 13:04:06;;;;;;;2.20;0.80;;;9.10;99.80;;;;;;5017712;28;20567;-85
2021/01/21 13:06:33;;;;;;;1.30;0.90;;;9.10;99.80;;;;;;5025468;28;20984;-85
2021/01/21 13:09:01;;;;;;;1.10;0.80;;;9.10;99.80;;;;;;5025518;28;20539;-85
2021/01/21 13:11:28;;;;;;;1.27;0.80;;;9.20;99.80;;;;;;5014609;28;21006;-85
2021/01/21 13:13:55;;;;;;;0.97;0.93;;;9.20;99.80;;;;;;5019567;28;20483;-85
2021/01/21 13:16:22;;;;;;;1.10;0.70;;;9.30;99.80;;;;;;5024003;28;21041;-86
2021/01/21 13:18:49;;;;;;;2.10;0.93;;;9.30;99.80;;;;;;5017627;28;20479;-84
2021/01/21 13:21:18;;;;;;;1.73;0.80;;;9.20;99.80;;;;;;4997305;28;20566;-86
2021/01/21 13:23:47;;;;;;;4.30;0.80;;;9.20;99.80;;;;;;4996941;28;20542;-84
2021/01/21 13:26:14;;;;;;;0.80;0.80;;;9.20;99.80;;;;;;4994559;28;20494;-84
2021/01/21 13:28:41;;;;;;;0.70;0.70;;;9.20;99.80;;;;;;5015530;28;20780;-82
2021/01/21 13:31:08;;;;;;;1.53;0.80;;;9.20;99.80;;;;;;5016129;28;20468;-85
2021/01/21 13:33:35;;;;;;;1.10;0.70;;;9.30;99.80;;;;;;5026635;28;21025;-85
2021/01/21 13:36:03;;;;;;;2.50;1.20;;;9.20;99.80;;;;;;5024132;28;20636;-84
2021/01/21 13:38:31;;;;;;;3.63;0.90;;;9.10;99.80;;;;;;5023331;28;20484;-84
2021/01/21 13:41:04;;;;;;;0.93;0.60;;;9.10;99.80;;;;;;5018296;28;20234;-85
2021/01/21 13:43:32;;;;;;;1.40;0.70;;;9.10;99.80;;;;;;5008178;28;20472;-86
2021/01/21 13:45:59;;;;;;;4.53;0.88;;;9.10;99.80;;;;;;5016669;28;21272;-86
2021/01/21 13:48:26;;;;;;;0.80;0.60;;;9.10;99.80;;;;;;5024177;28;20226;-86
2021/01/21 13:50:54;;;;;;;0.93;0.70;;;9.00;99.80;;;;;;5012719;28;20230;-83
2021/01/21 13:53:21;;;;;;;0.90;0.70;;;9.00;99.80;;;;;;5025946;28;20494;-86
2021/01/21 13:55:49;;;;;;;1.33;0.87;;;9.00;99.80;;;;;;5010734;28;20507;-85
2021/01/21 13:58:17;;;;;;;1.35;0.90;;;9.10;99.80;;;;;;4999260;28;20499;-84
2021/01/21 14:00:45;;;;;;;0.90;0.80;;;9.00;99.80;;;;;;5019333;28;20311;-84
2021/01/21 14:03:12;;;;;;;0.80;0.70;;;9.00;99.80;;;;;;5006106;28;20579;-84
2021/01/21 14:05:39;;;;;;;1.30;0.87;;;8.90;99.80;;;;;;5009791;28;20475;-84
2021/01/21 14:08:06;;;;;;;1.47;0.90;;;8.90;99.80;;;;;;5008621;28;20518;-83